ilmateenistus.ee keskkonnaagentuur.ee
EETN Tallinna lennuväli
FTEO31 EETN 290500
TAF EETN 290530Z 2906/3005 09015KT 9999 SCT040 BECMG 2910/2912
    08015G27KT BECMG 2919/2921 BKN025 TEMPO 2921/3006 4000 SHRA BKN010
    SCT020CB=

METAR EETN 291020Z 04011KT 360V090 CAVOK 20/08 Q1011 NOSIG=
Tallinna lennuväli
EEKA Kärdla lennuväli
METAR EEKA 290950Z NIL=
Kärdla lennuväli
EEKE Kuressaare lennuväli
FCEO32 EETN 290500 AAA
TAF AMD EEKE 290900Z 2906/2912 CNL=

METAR EEKE 290950Z 09016G26KT CAVOK 21/10 Q1007=
Kuressaare lennuväli
EEPU Pärnu lennuväli
METAR EEPU 290950Z 07009KT 020V110 CAVOK 22/09 Q1008=
Pärnu lennuväli
EETU Tartu lennuväli
FCEO32 EETN 290600 AAA
TAF AMD EETU 291000Z 2907/2913 CNL=

METAR EETU 291020Z 10015KT CAVOK 20/08 Q1010=
Tartu lennuväli
EEEI Ämari lennuväli
METAR EEEI 290950Z 08014KT 040V100 CAVOK 21/08 Q1010 NOSIG=
Ämari lennuväli